Abnaki, Vermont
Current Conditions -  °F | °C
As of 10:55 PM on Tuesday 27 Jan 2015 (Local Time) from KFSO Reporting Station
Clear Clear  
Wind Chill: -10°   Ceiling: Unl
Heat Index:   Visibility: 10mi
Dew Point: -1°   Wind: 13mph
Humidity: 69%   Direction: 360°N
Pressure: 29.98"   Gusts: 21mph
Location:  44.841°N, 73.2779°W
Report Text: KFSO 280355Z AUTO 36011G18KT 10SM CLR M14/M19 A2998 RMK AO2 T11411186
Loading
Personal Weather Stations






























Interactive Weather Map New forecast layout! Learn more

10-Day Weather Forecast

Advertisements
Track Severe Weather on mobile